createdAt,value
2024-03-04T00:00:04.626Z,18.90
2024-03-04T00:02:33.186Z,17.60
2024-03-04T00:05:01.738Z,17.90
2024-03-04T00:07:30.727Z,17.00
2024-03-04T00:09:58.908Z,16.50
2024-03-04T00:12:27.491Z,16.00
2024-03-04T00:14:56.256Z,15.00
2024-03-04T00:17:25.520Z,15.50
2024-03-04T00:19:54.169Z,16.50
2024-03-04T00:22:22.511Z,16.00
2024-03-04T00:24:51.029Z,15.50
2024-03-04T00:27:19.608Z,13.80
2024-03-04T00:29:47.991Z,12.90
2024-03-04T00:32:17.497Z,13.80
2024-03-04T00:34:45.875Z,14.20
2024-03-04T00:37:14.092Z,14.50
2024-03-04T00:39:47.364Z,13.60
2024-03-04T00:42:16.238Z,12.50
2024-03-04T00:44:45.121Z,13.10
2024-03-04T00:47:13.711Z,12.80
2024-03-04T00:49:42.310Z,12.10
2024-03-04T00:52:13.760Z,12.60
2024-03-04T00:54:42.010Z,13.00
2024-03-04T00:57:11.209Z,14.00
2024-03-04T00:59:39.698Z,12.70
2024-03-04T01:02:08.808Z,13.50
2024-03-04T01:04:37.592Z,13.50
2024-03-04T01:07:06.602Z,12.90
2024-03-04T01:09:35.156Z,13.20
2024-03-04T01:12:03.939Z,13.40
2024-03-04T01:14:32.334Z,11.60
2024-03-04T01:17:01.623Z,12.40
2024-03-04T01:19:30.330Z,12.60
2024-03-04T01:21:59.362Z,13.50
2024-03-04T01:24:29.342Z,11.90
2024-03-04T01:26:58.007Z,12.70
2024-03-04T01:29:29.859Z,11.50
2024-03-04T01:31:58.239Z,12.60
2024-03-04T01:34:26.836Z,12.50
2024-03-04T01:36:55.665Z,11.30
2024-03-04T01:39:24.917Z,12.90
2024-03-04T01:41:53.094Z,12.60
2024-03-04T01:44:21.890Z,13.00
2024-03-04T01:46:50.359Z,12.00
2024-03-04T01:49:22.193Z,11.30
2024-03-04T01:51:50.926Z,11.50
2024-03-04T01:54:19.282Z,11.30
2024-03-04T01:56:48.280Z,10.70
2024-03-04T01:59:18.816Z,11.10
2024-03-04T02:01:48.214Z,14.10
2024-03-04T02:04:17.115Z,13.70
2024-03-04T02:06:46.299Z,11.90
2024-03-04T02:09:17.982Z,12.60
2024-03-04T02:11:46.542Z,12.70
2024-03-04T02:14:15.029Z,12.10
2024-03-04T02:16:43.516Z,13.00
2024-03-04T02:19:15.868Z,13.30
2024-03-04T02:21:53.265Z,11.50
2024-03-04T02:24:22.015Z,12.90
2024-03-04T02:26:54.120Z,13.80
2024-03-04T02:29:22.510Z,13.20
2024-03-04T02:31:52.008Z,14.00
2024-03-04T02:34:20.411Z,18.90
2024-03-04T02:36:48.982Z,20.10
2024-03-04T02:39:19.538Z,29.20
2024-03-04T02:41:48.188Z,31.20
2024-03-04T02:44:16.801Z,43.70
2024-03-04T02:46:45.370Z,34.50
2024-03-04T02:49:14.366Z,21.60
2024-03-04T02:51:42.721Z,13.40
2024-03-04T02:54:14.377Z,15.00
2024-03-04T02:56:43.278Z,12.30
2024-03-04T02:59:12.103Z,12.70
2024-03-04T03:01:41.876Z,11.90
2024-03-04T03:04:10.307Z,12.10
2024-03-04T03:06:38.721Z,11.70
2024-03-04T03:09:07.832Z,11.70
2024-03-04T03:11:36.616Z,11.50
2024-03-04T03:14:05.197Z,11.70
2024-03-04T03:16:33.686Z,12.00
2024-03-04T03:19:02.497Z,12.60
2024-03-04T03:21:31.155Z,12.60
2024-03-04T03:23:59.638Z,13.90
2024-03-04T03:26:28.111Z,12.70
2024-03-04T03:28:58.155Z,11.90
2024-03-04T03:31:28.240Z,10.60
2024-03-04T03:33:56.756Z,10.90
2024-03-04T03:36:25.619Z,11.90
2024-03-04T03:38:54.200Z,13.50
2024-03-04T03:41:22.992Z,12.60
2024-03-04T03:43:51.379Z,13.80
2024-03-04T03:46:19.776Z,12.10
2024-03-04T03:48:48.742Z,11.80
2024-03-04T03:51:17.232Z,8.80
2024-03-04T03:53:45.617Z,12.30
2024-03-04T03:56:14.087Z,12.10
2024-03-04T03:58:42.648Z,11.40
2024-03-04T04:01:11.927Z,11.30
2024-03-04T04:03:40.749Z,10.20
2024-03-04T04:06:09.131Z,12.10
2024-03-04T04:08:37.264Z,11.60
2024-03-04T04:11:05.484Z,11.10
2024-03-04T04:13:33.794Z,12.90
2024-03-04T04:16:02.409Z,13.20
2024-03-04T04:18:31.230Z,11.00
2024-03-04T04:20:59.831Z,10.90
2024-03-04T04:23:28.302Z,10.20
2024-03-04T04:25:56.678Z,10.90
2024-03-04T04:28:26.721Z,11.50
2024-03-04T04:30:55.280Z,13.40
2024-03-04T04:33:24.316Z,11.60
2024-03-04T04:35:52.772Z,10.10
2024-03-04T04:38:21.351Z,11.00
2024-03-04T04:40:51.464Z,11.50
2024-03-04T04:43:22.205Z,11.40
2024-03-04T04:45:50.728Z,11.20
2024-03-04T04:48:19.794Z,12.70
2024-03-04T04:50:48.354Z,9.80
2024-03-04T04:53:17.045Z,11.60
2024-03-04T04:55:45.425Z,11.10
2024-03-04T04:58:15.560Z,12.00
2024-03-04T05:03:16.205Z,13.80
2024-03-04T05:05:50.983Z,12.60
2024-03-04T05:08:19.716Z,10.90
2024-03-04T05:10:48.100Z,11.30
2024-03-04T05:13:16.990Z,12.10
2024-03-04T05:15:45.553Z,11.90
2024-03-04T05:18:14.737Z,11.10
2024-03-04T05:20:53.918Z,10.90
2024-03-04T05:23:24.824Z,10.70
2024-03-04T05:25:53.461Z,11.70
2024-03-04T05:28:21.938Z,11.00
2024-03-04T05:30:50.367Z,11.80
2024-03-04T05:33:18.574Z,12.70
2024-03-04T05:35:47.510Z,11.40
2024-03-04T05:38:15.802Z,11.80
2024-03-04T05:40:45.150Z,11.10
2024-03-04T05:43:14.079Z,11.80
2024-03-04T05:45:42.522Z,11.90
2024-03-04T05:48:11.088Z,10.70
2024-03-04T05:50:39.655Z,12.90
2024-03-04T05:53:07.928Z,12.30
2024-03-04T05:55:36.800Z,12.90
2024-03-04T05:58:05.449Z,11.40
2024-03-04T06:00:35.085Z,12.40
2024-03-04T06:03:03.901Z,11.90
2024-03-04T06:05:32.383Z,12.00
2024-03-04T06:08:02.607Z,12.70
2024-03-04T06:10:31.229Z,12.40
2024-03-04T06:13:00.131Z,12.80
2024-03-04T06:15:28.869Z,13.30
2024-03-04T06:17:57.277Z,25.50
2024-03-04T06:20:25.744Z,31.00
2024-03-04T06:22:54.218Z,18.30
2024-03-04T06:25:22.933Z,17.70
2024-03-04T06:27:52.004Z,13.40
2024-03-04T06:30:21.213Z,10.50
2024-03-04T06:32:49.497Z,10.80
2024-03-04T06:35:18.763Z,10.20
2024-03-04T06:37:47.390Z,10.60
2024-03-04T06:40:16.399Z,11.60
2024-03-04T06:42:44.925Z,11.30
2024-03-04T06:45:13.523Z,13.70
2024-03-04T06:47:41.750Z,13.40
2024-03-04T06:50:10.466Z,14.00
2024-03-04T06:52:38.999Z,18.50
2024-03-04T06:55:07.890Z,19.40
2024-03-04T06:57:36.334Z,16.20
2024-03-04T07:00:06.473Z,15.60
2024-03-04T07:02:35.265Z,10.90
2024-03-04T07:05:04.025Z,12.80
2024-03-04T07:07:32.325Z,13.00
2024-03-04T07:10:04.016Z,13.70
2024-03-04T07:12:32.714Z,12.00
2024-03-04T07:15:01.362Z,13.50
2024-03-04T07:17:29.550Z,13.20
2024-03-04T07:19:57.901Z,12.80
2024-03-04T07:22:26.507Z,14.20
2024-03-04T07:24:55.875Z,12.70
2024-03-04T07:27:24.773Z,13.90
2024-03-04T07:29:59.122Z,16.00
2024-03-04T07:32:31.405Z,15.00
2024-03-04T07:34:59.933Z,12.60
2024-03-04T07:37:28.973Z,15.20
2024-03-04T07:39:57.223Z,15.00
2024-03-04T07:42:27.017Z,13.00
2024-03-04T07:44:55.406Z,13.60
2024-03-04T07:47:23.953Z,12.90
2024-03-04T07:49:53.404Z,13.90
2024-03-04T07:52:21.882Z,12.90
2024-03-04T07:54:50.333Z,14.40
2024-03-04T07:57:23.561Z,13.40
2024-03-04T07:59:52.994Z,15.90
2024-03-04T08:02:21.628Z,23.20
2024-03-04T08:04:49.996Z,14.90
2024-03-04T08:07:18.553Z,14.00
2024-03-04T08:09:46.980Z,20.80
2024-03-04T08:12:16.465Z,13.60
2024-03-04T08:14:45.067Z,16.20
2024-03-04T08:17:13.430Z,13.50
2024-03-04T08:19:42.245Z,16.50
2024-03-04T08:22:10.808Z,15.90
2024-03-04T08:24:45.487Z,14.60
2024-03-04T08:27:14.108Z,15.60
2024-03-04T08:29:42.800Z,15.70
2024-03-04T08:32:11.179Z,15.60
2024-03-04T08:34:40.118Z,15.30
2024-03-04T08:39:37.240Z,14.30
2024-03-04T08:42:06.921Z,17.60
2024-03-04T08:44:35.242Z,15.90
2024-03-04T08:47:03.795Z,15.20
2024-03-04T08:49:32.137Z,17.30
2024-03-04T08:52:02.629Z,17.70
2024-03-04T08:54:32.892Z,15.20
2024-03-04T08:57:01.413Z,14.30
2024-03-04T08:59:29.811Z,15.20
2024-03-04T09:01:58.103Z,13.60
2024-03-04T09:04:26.673Z,13.90
2024-03-04T09:06:56.570Z,13.70
2024-03-04T09:09:24.806Z,42.90
2024-03-04T09:11:54.048Z,29.70
2024-03-04T09:14:22.340Z,16.00
2024-03-04T09:16:51.484Z,14.10
2024-03-04T09:19:19.725Z,17.00
2024-03-04T09:21:48.990Z,14.10
2024-03-04T09:24:17.581Z,15.80
2024-03-04T09:26:48.931Z,15.90
2024-03-04T09:29:17.815Z,14.00
2024-03-04T09:31:46.201Z,16.90
2024-03-04T09:34:14.906Z,17.80
2024-03-04T09:36:43.268Z,15.90
2024-03-04T09:39:14.741Z,14.80
2024-03-04T09:41:43.808Z,16.20
2024-03-04T09:44:12.696Z,18.20
2024-03-04T09:46:42.430Z,13.90
2024-03-04T09:49:12.822Z,14.10
2024-03-04T09:51:42.227Z,14.20
2024-03-04T09:54:15.916Z,15.40
2024-03-04T09:56:44.677Z,15.10
2024-03-04T09:59:13.530Z,13.60
2024-03-04T10:01:42.343Z,14.00
2024-03-04T10:04:11.036Z,13.00
2024-03-04T10:06:40.425Z,13.90
2024-03-04T10:09:14.083Z,14.30
2024-03-04T10:11:44.203Z,15.30
2024-03-04T10:14:12.704Z,15.10
2024-03-04T10:16:41.620Z,14.70
2024-03-04T10:19:09.805Z,14.40
2024-03-04T10:21:38.348Z,14.80
2024-03-04T10:24:11.411Z,32.50
2024-03-04T10:26:42.102Z,16.70
2024-03-04T10:29:11.075Z,14.80
2024-03-04T10:31:49.746Z,13.70
2024-03-04T10:34:18.484Z,15.00
2024-03-04T10:36:49.029Z,14.40
2024-03-04T10:39:17.738Z,18.90
2024-03-04T10:41:48.922Z,15.60
2024-03-04T10:44:29.907Z,16.30
2024-03-04T10:47:03.939Z,15.50
2024-03-04T10:49:33.378Z,23.70
2024-03-04T10:54:35.603Z,28.30
2024-03-04T10:57:08.728Z,15.80
2024-03-04T10:59:38.683Z,17.50
2024-03-04T11:02:21.635Z,14.90
2024-03-04T11:04:56.422Z,17.60
2024-03-04T11:07:29.626Z,17.80
2024-03-04T11:10:02.109Z,15.30
2024-03-04T11:12:34.249Z,15.50
2024-03-04T11:15:10.190Z,14.40
2024-03-04T11:17:47.450Z,14.50
2024-03-04T11:20:20.212Z,15.40
2024-03-04T11:22:49.054Z,15.60
2024-03-04T11:25:18.881Z,16.70
2024-03-04T11:27:48.633Z,16.10
2024-03-04T11:30:19.023Z,14.50
2024-03-04T11:32:47.512Z,14.40
2024-03-04T11:35:28.457Z,24.00
2024-03-04T11:38:14.509Z,15.40
2024-03-04T11:40:46.957Z,18.80
2024-03-04T11:43:44.997Z,14.40
2024-03-04T11:46:15.527Z,16.00
2024-03-04T11:48:44.079Z,15.20
2024-03-04T11:51:12.487Z,15.30
2024-03-04T11:53:45.044Z,16.50
2024-03-04T11:56:15.216Z,16.20
2024-03-04T11:58:43.689Z,16.60
2024-03-04T12:01:19.086Z,17.60
2024-03-04T12:03:54.917Z,17.50
2024-03-04T12:06:23.802Z,18.50
2024-03-04T12:09:09.331Z,18.00
2024-03-04T12:11:41.147Z,21.20
2024-03-04T12:14:09.647Z,16.50
2024-03-04T12:16:40.322Z,14.90
2024-03-04T12:19:08.974Z,15.60
2024-03-04T12:21:38.972Z,17.30
2024-03-04T12:24:10.655Z,16.70
2024-03-04T12:26:39.017Z,16.90
2024-03-04T12:29:08.558Z,15.10
2024-03-04T12:34:08.861Z,14.30
2024-03-04T12:36:45.139Z,14.40
2024-03-04T12:39:13.803Z,15.10
2024-03-04T12:41:42.201Z,14.70
2024-03-04T12:44:10.556Z,15.00
2024-03-04T12:46:40.045Z,14.20
2024-03-04T12:49:09.044Z,13.80
2024-03-04T12:51:38.074Z,15.70
2024-03-04T12:54:06.422Z,14.30
2024-03-04T12:56:34.706Z,15.70
2024-03-04T12:59:03.221Z,15.30
2024-03-04T13:01:32.114Z,14.90
2024-03-04T13:04:05.194Z,13.50
2024-03-04T13:06:33.676Z,14.60
2024-03-04T13:09:02.382Z,13.90
2024-03-04T13:11:30.950Z,13.60
2024-03-04T13:13:59.504Z,14.60
2024-03-04T13:16:28.460Z,12.80
2024-03-04T13:18:56.767Z,13.90
2024-03-04T13:21:25.276Z,13.90
2024-03-04T13:23:53.747Z,13.10
2024-03-04T13:26:22.342Z,13.40
2024-03-04T13:28:50.837Z,13.90
2024-03-04T13:31:19.295Z,13.30
2024-03-04T13:33:48.374Z,13.20
2024-03-04T13:36:16.750Z,12.90
2024-03-04T13:38:45.247Z,13.40
2024-03-04T13:41:13.362Z,15.50
2024-03-04T13:43:41.726Z,13.80
2024-03-04T13:46:10.632Z,13.60
2024-03-04T13:48:39.172Z,13.50
2024-03-04T13:51:07.558Z,15.30
2024-03-04T13:53:38.185Z,12.90
2024-03-04T13:56:08.536Z,14.20
2024-03-04T13:58:36.802Z,14.10
2024-03-04T14:01:05.217Z,14.10
2024-03-04T14:03:36.280Z,14.10
2024-03-04T14:06:06.336Z,13.70
2024-03-04T14:08:34.694Z,15.80
2024-03-04T14:11:05.564Z,19.00
2024-03-04T14:13:34.219Z,21.70
2024-03-04T14:16:02.520Z,18.30
2024-03-04T14:18:31.693Z,15.70
2024-03-04T14:21:00.295Z,15.80
2024-03-04T14:23:32.976Z,31.30
2024-03-04T14:26:04.921Z,19.10
2024-03-04T14:28:33.649Z,24.90
2024-03-04T14:31:01.885Z,15.40
2024-03-04T14:33:30.445Z,23.50
2024-03-04T14:35:58.860Z,15.20
2024-03-04T14:38:27.426Z,20.20
2024-03-04T14:40:58.695Z,15.20
2024-03-04T14:43:27.600Z,19.20
2024-03-04T14:45:55.945Z,18.20
2024-03-04T14:48:24.337Z,17.00
2024-03-04T14:50:52.899Z,14.60
2024-03-04T14:53:21.490Z,22.10
2024-03-04T14:55:49.960Z,18.10
2024-03-04T14:58:18.570Z,18.70
2024-03-04T15:00:46.999Z,18.50
2024-03-04T15:03:15.311Z,20.60
2024-03-04T15:05:44.516Z,25.00
2024-03-04T15:08:12.895Z,18.30
2024-03-04T15:10:41.589Z,17.40
2024-03-04T15:13:09.992Z,24.50
2024-03-04T15:15:38.312Z,18.40
2024-03-04T15:18:15.490Z,21.50
2024-03-04T15:20:54.608Z,20.60
2024-03-04T15:23:23.334Z,30.90
2024-03-04T15:25:51.895Z,25.80
2024-03-04T15:28:20.331Z,28.60
2024-03-04T15:30:48.796Z,20.40
2024-03-04T15:33:18.588Z,23.20
2024-03-04T15:35:48.244Z,22.30
2024-03-04T15:38:18.020Z,20.90
2024-03-04T15:40:46.426Z,17.50
2024-03-04T15:43:17.347Z,19.80
2024-03-04T15:45:46.446Z,22.60
2024-03-04T15:48:14.905Z,22.20
2024-03-04T15:50:43.308Z,28.20
2024-03-04T15:53:11.688Z,36.30
2024-03-04T15:55:40.322Z,34.80
2024-03-04T15:58:10.903Z,25.40
2024-03-04T16:00:40.373Z,24.30
2024-03-04T16:03:08.755Z,21.70
2024-03-04T16:05:37.246Z,26.50
2024-03-04T16:08:06.029Z,27.50
2024-03-04T16:10:34.466Z,34.20
2024-03-04T16:13:03.145Z,44.90
2024-03-04T16:15:40.969Z,23.50
2024-03-04T16:18:17.068Z,20.10
2024-03-04T16:20:45.642Z,19.30
2024-03-04T16:23:14.346Z,22.20
2024-03-04T16:25:42.808Z,21.30
2024-03-04T16:28:11.570Z,17.20
2024-03-04T16:30:40.113Z,19.60
2024-03-04T16:33:08.415Z,17.00
2024-03-04T16:35:37.046Z,15.00
2024-03-04T16:38:05.630Z,17.00
2024-03-04T16:40:34.653Z,20.10
2024-03-04T16:43:05.994Z,24.50
2024-03-04T16:45:34.553Z,23.30
2024-03-04T16:48:03.809Z,23.00
2024-03-04T16:50:32.158Z,22.70
2024-03-04T16:53:00.709Z,19.40
2024-03-04T16:55:31.734Z,17.80
2024-03-04T16:58:04.659Z,21.10
2024-03-04T17:00:33.541Z,28.40
2024-03-04T17:03:05.593Z,28.90
2024-03-04T17:05:34.884Z,27.20
2024-03-04T17:08:07.072Z,27.90
2024-03-04T17:10:35.314Z,26.60
2024-03-04T17:13:04.570Z,23.50
2024-03-04T17:15:33.421Z,23.20
2024-03-04T17:18:03.462Z,23.70
2024-03-04T17:23:01.884Z,25.80
2024-03-04T17:25:30.350Z,23.30
2024-03-04T17:27:59.105Z,19.80
2024-03-04T17:30:27.485Z,18.30
2024-03-04T17:32:56.170Z,21.80
2024-03-04T17:35:25.065Z,20.50
2024-03-04T17:37:53.576Z,21.50
2024-03-04T17:40:22.274Z,20.50
2024-03-04T17:42:50.720Z,22.50
2024-03-04T17:45:19.195Z,19.20
2024-03-04T17:47:47.780Z,22.20
2024-03-04T17:50:16.566Z,20.80
2024-03-04T17:52:44.962Z,20.50
2024-03-04T17:55:14.084Z,21.70
2024-03-04T17:57:43.755Z,21.50
2024-03-04T18:00:12.628Z,22.80
2024-03-04T18:02:41.121Z,20.40
2024-03-04T18:05:09.950Z,21.90
2024-03-04T18:07:40.066Z,20.50
2024-03-04T18:10:10.199Z,20.90
2024-03-04T18:12:38.935Z,19.60
2024-03-04T18:15:08.246Z,19.20
2024-03-04T18:17:36.973Z,17.90
2024-03-04T18:20:07.848Z,18.10
2024-03-04T18:22:36.489Z,17.20
2024-03-04T18:25:06.937Z,15.50
2024-03-04T18:27:35.455Z,16.80
2024-03-04T18:30:04.657Z,18.00
2024-03-04T18:32:33.775Z,16.80
2024-03-04T18:35:02.265Z,18.60
2024-03-04T18:37:30.718Z,19.30
2024-03-04T18:39:59.197Z,17.20
2024-03-04T18:42:27.701Z,16.30
2024-03-04T18:44:56.072Z,17.40
2024-03-04T18:47:25.587Z,16.20
2024-03-04T18:49:54.328Z,17.50
2024-03-04T18:52:23.647Z,16.70
2024-03-04T18:54:52.697Z,14.70
2024-03-04T18:57:21.223Z,16.30
2024-03-04T18:59:49.706Z,17.00
2024-03-04T19:02:18.436Z,17.00
2024-03-04T19:04:47.013Z,17.30
2024-03-04T19:07:15.894Z,17.20
2024-03-04T19:09:44.459Z,16.60
2024-03-04T19:12:12.856Z,13.20
2024-03-04T19:14:42.679Z,13.80
2024-03-04T19:17:11.432Z,18.50
2024-03-04T19:19:39.838Z,18.10
2024-03-04T19:22:08.850Z,18.20
2024-03-04T19:24:39.561Z,16.30
2024-03-04T19:27:08.010Z,18.10
2024-03-04T19:29:36.513Z,17.40
2024-03-04T19:32:05.305Z,17.40
2024-03-04T19:34:34.461Z,16.40
2024-03-04T19:37:03.568Z,19.70
2024-03-04T19:39:32.173Z,20.60
2024-03-04T19:42:03.269Z,21.80
2024-03-04T19:44:32.309Z,16.40
2024-03-04T19:47:01.500Z,12.90
2024-03-04T19:49:29.989Z,14.10
2024-03-04T19:51:58.464Z,12.40
2024-03-04T19:54:26.879Z,12.20
2024-03-04T19:56:56.155Z,14.00
2024-03-04T19:59:24.635Z,20.20
2024-03-04T20:01:53.234Z,15.60
2024-03-04T20:04:21.859Z,16.70
2024-03-04T20:06:50.504Z,18.20
2024-03-04T20:09:18.952Z,14.20
2024-03-04T20:11:47.378Z,14.90
2024-03-04T20:14:15.762Z,15.50
2024-03-04T20:16:46.424Z,17.30
2024-03-04T20:19:14.865Z,14.50
2024-03-04T20:21:43.302Z,13.70
2024-03-04T20:24:11.480Z,14.80
2024-03-04T20:26:39.877Z,13.90
2024-03-04T20:29:08.460Z,11.40
2024-03-04T20:31:37.801Z,11.20
2024-03-04T20:34:07.148Z,11.20
2024-03-04T20:36:35.517Z,12.00
2024-03-04T20:39:04.120Z,10.20
2024-03-04T20:41:32.387Z,11.20
2024-03-04T20:44:03.133Z,10.40
2024-03-04T20:46:31.629Z,8.90
2024-03-04T20:49:00.197Z,9.40
2024-03-04T20:51:31.121Z,7.60
2024-03-04T20:53:59.699Z,8.40
2024-03-04T20:56:28.080Z,9.80
2024-03-04T20:58:56.392Z,9.30
2024-03-04T21:01:25.104Z,9.60
2024-03-04T21:03:53.752Z,11.00
2024-03-04T21:06:22.213Z,10.50
2024-03-04T21:08:50.593Z,8.80
2024-03-04T21:11:19.543Z,8.50
2024-03-04T21:13:48.249Z,8.20
2024-03-04T21:16:16.705Z,7.40
2024-03-04T21:18:45.447Z,5.90
2024-03-04T21:21:13.842Z,6.80
2024-03-04T21:23:42.403Z,7.10
2024-03-04T21:26:10.762Z,7.10
2024-03-04T21:28:41.047Z,6.50
2024-03-04T21:31:11.024Z,7.00
2024-03-04T21:33:39.602Z,6.10
2024-03-04T21:36:08.221Z,6.80
2024-03-04T21:38:36.581Z,6.80
2024-03-04T21:41:05.181Z,6.20
2024-03-04T21:43:33.566Z,7.60
2024-03-04T21:46:04.473Z,6.40
2024-03-04T21:48:37.658Z,7.20
2024-03-04T21:51:06.974Z,7.40
2024-03-04T21:53:35.346Z,7.10
2024-03-04T21:56:08.133Z,7.40
2024-03-04T21:58:36.696Z,6.80
2024-03-04T22:01:05.368Z,7.10
2024-03-04T22:03:34.299Z,7.60
2024-03-04T22:06:03.548Z,7.40
2024-03-04T22:08:34.067Z,7.30
2024-03-04T22:13:30.605Z,7.10
2024-03-04T22:15:58.938Z,7.10
2024-03-04T22:18:27.330Z,7.30
2024-03-04T22:20:55.700Z,8.10
2024-03-04T22:23:24.047Z,6.80
2024-03-04T22:25:52.654Z,7.40
2024-03-04T22:28:21.165Z,7.60
2024-03-04T22:30:52.816Z,7.90
2024-03-04T22:33:21.283Z,7.50
2024-03-04T22:35:49.764Z,7.50
2024-03-04T22:38:21.221Z,7.90
2024-03-04T22:40:51.284Z,7.60
2024-03-04T22:43:20.494Z,7.70
2024-03-04T22:45:48.910Z,7.20
2024-03-04T22:48:17.293Z,6.30
2024-03-04T22:50:45.668Z,7.00
2024-03-04T22:53:14.558Z,6.80
2024-03-04T22:55:43.305Z,7.40
2024-03-04T22:58:11.867Z,7.10
2024-03-04T23:00:40.221Z,7.20
2024-03-04T23:03:12.187Z,7.10
2024-03-04T23:05:41.367Z,7.70
2024-03-04T23:08:09.977Z,6.80
2024-03-04T23:10:38.795Z,6.40
2024-03-04T23:13:08.034Z,7.00
2024-03-04T23:15:40.110Z,7.10
2024-03-04T23:18:11.251Z,7.20
2024-03-04T23:20:39.726Z,7.60
2024-03-04T23:23:08.423Z,8.30
2024-03-04T23:25:36.823Z,8.70
2024-03-04T23:28:06.411Z,7.50
2024-03-04T23:30:36.420Z,7.60
2024-03-04T23:33:06.667Z,8.00
2024-03-04T23:35:35.115Z,8.90
2024-03-04T23:38:04.205Z,7.80
2024-03-04T23:40:32.958Z,8.50
2024-03-04T23:43:01.385Z,7.50
2024-03-04T23:45:29.586Z,8.00
2024-03-04T23:47:58.168Z,7.70
2024-03-04T23:50:27.031Z,8.40
2024-03-04T23:52:55.267Z,8.60
2024-03-04T23:55:23.827Z,7.90
2024-03-04T23:57:52.907Z,8.80
